Time;durP1;ratioP1;P1;durP2;ratioP2;P2;SDS_P1;SDS_P2;PMS_P1;PMS_P2;Temp;Humidity;BMP_temperature;BMP_pressure;BME280_temperature;BME280_humidity;BME280_pressure;Samples;Min_cycle;Max_cycle;Signal;HPM_P1;HPM_P2
2022/07/10 00:00:20;;;;;;;5.95;3.38;;;;;;;;;;4996818;28;20116;-81
2022/07/10 00:02:46;;;;;;;5.40;3.20;;;;;;;;;;5005485;28;20045;-80
2022/07/10 00:05:13;;;;;;;5.57;3.00;;;;;;;;;;5015116;28;20026;-81
2022/07/10 00:07:39;;;;;;;5.25;3.08;;;;;;;;;;5007869;28;20015;-81
2022/07/10 00:10:06;;;;;;;5.15;2.90;;;;;;;;;;4996473;28;20405;-81
2022/07/10 00:12:32;;;;;;;6.53;3.17;;;;;;;;;;4996346;28;20050;-82
2022/07/10 00:14:58;;;;;;;5.32;3.60;;;;;;;;;;4996275;28;20515;-80
2022/07/10 00:17:24;;;;;;;6.53;3.28;;;;;;;;;;5006672;28;20031;-79
2022/07/10 00:19:50;;;;;;;6.75;3.50;;;;;;;;;;5005160;28;20256;-80
2022/07/10 00:22:16;;;;;;;5.55;3.35;;;;;;;;;;4979206;28;20105;-80
2022/07/10 00:24:42;;;;;;;6.80;3.88;;;;;;;;;;4977170;28;20037;-80
2022/07/10 00:27:08;;;;;;;5.55;3.22;;;;;;;;;;5007179;28;20029;-80
2022/07/10 00:29:34;;;;;;;8.27;4.00;;;;;;;;;;5015274;28;20049;-81
2022/07/10 00:32:00;;;;;;;5.85;3.60;;;;;;;;;;5000611;28;20030;-80
2022/07/10 00:34:26;;;;;;;5.43;3.58;;;;;;;;;;4990623;28;20596;-80
2022/07/10 00:36:52;;;;;;;6.78;3.55;;;;;;;;;;4976546;28;20035;-80
2022/07/10 00:39:18;;;;;;;5.47;3.50;;;;;;;;;;4976597;28;20389;-80
2022/07/10 00:41:44;;;;;;;5.47;3.15;;;;;;;;;;4980543;28;20022;-79
2022/07/10 00:44:10;;;;;;;5.45;3.35;;;;;;;;;;5001152;28;20030;-79
2022/07/10 00:46:36;;;;;;;5.75;3.60;;;;;;;;;;5002272;28;20495;-79
2022/07/10 00:49:02;;;;;;;5.90;3.60;;;;;;;;;;5002375;28;20023;-79
2022/07/10 00:51:30;;;;;;;6.53;3.45;;;;;;;;;;5002440;28;20037;-79
2022/07/10 00:53:57;;;;;;;5.93;3.53;;;;;;;;;;5001129;28;20026;-79
2022/07/10 00:56:24;;;;;;;6.38;3.47;;;;;;;;;;4998934;28;20436;-81
2022/07/10 00:58:50;;;;;;;6.22;4.00;;;;;;;;;;4995036;28;20027;-81
2022/07/10 01:01:16;;;;;;;6.40;3.67;;;;;;;;;;4995741;28;20125;-80
2022/07/10 01:03:46;;;;;;;6.15;3.67;;;;;;;;;;4996202;28;20030;-80
2022/07/10 01:06:13;;;;;;;5.88;3.75;;;;;;;;;;4994576;28;20026;-80
2022/07/10 01:08:39;;;;;;;5.47;3.53;;;;;;;;;;4995677;28;20026;-81
2022/07/10 01:11:05;;;;;;;5.90;3.97;;;;;;;;;;4995609;28;20026;-80
2022/07/10 01:13:31;;;;;;;5.78;3.40;;;;;;;;;;5001314;28;20028;-80
2022/07/10 01:15:58;;;;;;;6.72;3.97;;;;;;;;;;5015421;28;20094;-80
2022/07/10 01:18:26;;;;;;;6.15;3.90;;;;;;;;;;5012710;28;20026;-80
2022/07/10 01:20:53;;;;;;;6.78;4.32;;;;;;;;;;4995539;28;20543;-80
2022/07/10 01:23:19;;;;;;;5.65;3.45;;;;;;;;;;4995821;28;20022;-80
2022/07/10 01:25:45;;;;;;;7.55;4.10;;;;;;;;;;4995602;28;20096;-80
2022/07/10 01:28:11;;;;;;;7.40;3.85;;;;;;;;;;4994494;28;20489;-80
2022/07/10 01:30:37;;;;;;;5.65;3.80;;;;;;;;;;4997905;28;20030;-79
2022/07/10 01:33:03;;;;;;;6.05;4.25;;;;;;;;;;5000522;28;20388;-79
2022/07/10 01:35:29;;;;;;;5.80;3.75;;;;;;;;;;5008387;28;20494;-79
2022/07/10 01:37:55;;;;;;;5.97;3.75;;;;;;;;;;4980769;28;20026;-79
2022/07/10 01:40:21;;;;;;;6.50;4.05;;;;;;;;;;4979171;28;20363;-79
2022/07/10 01:42:47;;;;;;;7.25;4.40;;;;;;;;;;4977979;28;20030;-80
2022/07/10 01:45:13;;;;;;;7.00;4.10;;;;;;;;;;5002021;28;20026;-80
2022/07/10 01:47:39;;;;;;;5.20;3.40;;;;;;;;;;4995178;28;20031;-80
2022/07/10 01:50:06;;;;;;;6.78;4.45;;;;;;;;;;4988467;28;20441;-80
2022/07/10 01:52:32;;;;;;;7.82;3.97;;;;;;;;;;4995713;28;20022;-80
2022/07/10 01:54:58;;;;;;;6.32;3.85;;;;;;;;;;4995812;28;20018;-81
2022/07/10 01:57:24;;;;;;;6.13;3.67;;;;;;;;;;5000281;28;20030;-80
2022/07/10 01:59:50;;;;;;;6.25;3.70;;;;;;;;;;4995952;28;20037;-80
2022/07/10 02:02:16;;;;;;;7.82;3.80;;;;;;;;;;5002766;28;20108;-80
2022/07/10 02:04:42;;;;;;;6.20;3.65;;;;;;;;;;5015420;28;20508;-80
2022/07/10 02:07:18;;;;;;;7.68;4.20;;;;;;;;;;5015754;28;20061;-80
2022/07/10 02:09:45;;;;;;;5.43;3.63;;;;;;;;;;5016284;28;20018;-80
2022/07/10 02:12:11;;;;;;;6.40;3.60;;;;;;;;;;5011699;28;20029;-80
2022/07/10 02:14:37;;;;;;;8.40;3.95;;;;;;;;;;4995950;28;20110;-80
2022/07/10 02:17:04;;;;;;;6.78;3.50;;;;;;;;;;4996012;28;20053;-80
2022/07/10 02:19:30;;;;;;;6.22;3.38;;;;;;;;;;4996095;28;20093;-80
2022/07/10 02:21:56;;;;;;;5.65;3.47;;;;;;;;;;4998876;28;20022;-81
2022/07/10 02:24:23;;;;;;;5.93;3.70;;;;;;;;;;5015456;28;20033;-80
2022/07/10 02:26:49;;;;;;;5.50;3.65;;;;;;;;;;5015085;28;20365;-80
2022/07/10 02:29:15;;;;;;;5.70;3.60;;;;;;;;;;5015824;28;20022;-80
2022/07/10 02:31:41;;;;;;;5.18;3.38;;;;;;;;;;5013031;28;20498;-80
2022/07/10 02:34:08;;;;;;;7.07;3.65;;;;;;;;;;4999868;28;20101;-80
2022/07/10 02:36:34;;;;;;;6.93;3.33;;;;;;;;;;4976772;28;20034;-80
2022/07/10 02:39:00;;;;;;;5.85;3.35;;;;;;;;;;4976616;28;20023;-80
2022/07/10 02:41:26;;;;;;;6.03;3.85;;;;;;;;;;4975674;28;20031;-80
2022/07/10 02:43:52;;;;;;;6.85;3.38;;;;;;;;;;4994361;28;20098;-80
2022/07/10 02:46:18;;;;;;;5.78;3.60;;;;;;;;;;4994420;28;20026;-80
2022/07/10 02:48:44;;;;;;;5.03;3.17;;;;;;;;;;4994894;28;20073;-80
2022/07/10 02:51:10;;;;;;;5.75;3.70;;;;;;;;;;4995712;28;20034;-80
2022/07/10 02:53:36;;;;;;;5.82;3.60;;;;;;;;;;4993522;28;20030;-80
2022/07/10 02:56:02;;;;;;;5.50;3.17;;;;;;;;;;5010409;28;20072;-80
2022/07/10 02:58:28;;;;;;;11.90;4.22;;;;;;;;;;4999626;28;20138;-80
2022/07/10 03:00:54;;;;;;;5.75;3.30;;;;;;;;;;4999687;28;20057;-80
2022/07/10 03:03:21;;;;;;;5.47;3.78;;;;;;;;;;4994896;28;20028;-80
2022/07/10 03:05:47;;;;;;;5.28;3.63;;;;;;;;;;4999312;28;20089;-80
2022/07/10 03:08:13;;;;;;;8.38;4.18;;;;;;;;;;4999086;28;20077;-79
2022/07/10 03:10:40;;;;;;;5.32;3.75;;;;;;;;;;4999493;28;20026;-80
2022/07/10 03:13:06;;;;;;;5.68;3.50;;;;;;;;;;4996714;28;20484;-79
2022/07/10 03:15:32;;;;;;;6.97;3.78;;;;;;;;;;4999523;28;20473;-80
2022/07/10 03:17:58;;;;;;;5.47;3.50;;;;;;;;;;4998053;28;21615;-80
2022/07/10 03:20:24;;;;;;;4.97;3.22;;;;;;;;;;4998978;28;20031;-80
2022/07/10 03:22:50;;;;;;;6.75;3.60;;;;;;;;;;4999174;28;20019;-80
2022/07/10 03:25:16;;;;;;;6.68;3.50;;;;;;;;;;5019438;28;20022;-79
2022/07/10 03:27:42;;;;;;;8.05;4.57;;;;;;;;;;5025068;28;20030;-79
2022/07/10 03:30:09;;;;;;;5.95;3.70;;;;;;;;;;5022757;28;20030;-79
2022/07/10 03:32:35;;;;;;;7.72;3.70;;;;;;;;;;5018619;28;20459;-79
2022/07/10 03:35:01;;;;;;;6.13;3.70;;;;;;;;;;4999318;28;20046;-79
2022/07/10 03:37:27;;;;;;;5.63;3.60;;;;;;;;;;4998634;28;20488;-80
2022/07/10 03:39:53;;;;;;;5.22;3.58;;;;;;;;;;4992748;28;20055;-79
2022/07/10 03:42:19;;;;;;;5.50;3.47;;;;;;;;;;4979310;28;20027;-80
2022/07/10 03:44:45;;;;;;;6.20;4.30;;;;;;;;;;4995309;28;20033;-79
2022/07/10 03:47:11;;;;;;;5.78;3.50;;;;;;;;;;4998511;28;20026;-79
2022/07/10 03:49:41;;;;;;;5.65;3.50;;;;;;;;;;4998358;28;20034;-79
2022/07/10 03:52:07;;;;;;;5.32;3.40;;;;;;;;;;4998747;28;20029;-79
2022/07/10 03:54:33;;;;;;;6.20;3.58;;;;;;;;;;5001748;28;20022;-79
2022/07/10 03:59:44;;;;;;;5.57;3.70;;;;;;;;;;4979553;28;20041;-80
2022/07/10 04:02:10;;;;;;;6.72;3.72;;;;;;;;;;4978999;28;20046;-79
2022/07/10 04:04:36;;;;;;;6.07;3.60;;;;;;;;;;4993086;28;20023;-79
2022/07/10 04:07:04;;;;;;;7.22;3.53;;;;;;;;;;4995963;28;20033;-79
2022/07/10 04:09:30;;;;;;;8.15;3.88;;;;;;;;;;4997259;28;20026;-79
2022/07/10 04:11:56;;;;;;;6.20;3.70;;;;;;;;;;4996653;28;20030;-79
2022/07/10 04:14:22;;;;;;;5.47;3.50;;;;;;;;;;4997065;28;20117;-79
2022/07/10 04:16:48;;;;;;;6.18;3.45;;;;;;;;;;4996316;28;20126;-79
2022/07/10 04:19:15;;;;;;;6.25;3.90;;;;;;;;;;5004188;28;20562;-80
2022/07/10 04:21:41;;;;;;;5.70;3.58;;;;;;;;;;4998106;28;20117;-79
2022/07/10 04:24:07;;;;;;;6.70;4.18;;;;;;;;;;4997657;28;20069;-80
2022/07/10 04:26:33;;;;;;;6.13;3.63;;;;;;;;;;4998039;28;20369;-79
2022/07/10 04:28:59;;;;;;;5.82;3.40;;;;;;;;;;4998341;28;20056;-80
2022/07/10 04:31:25;;;;;;;6.43;3.35;;;;;;;;;;4993681;28;20026;-80
2022/07/10 04:33:51;;;;;;;7.25;3.80;;;;;;;;;;4997319;28;20031;-79
2022/07/10 04:36:18;;;;;;;5.88;3.78;;;;;;;;;;4995095;28;20209;-78
2022/07/10 04:38:44;;;;;;;5.75;3.42;;;;;;;;;;4996900;28;20531;-79
2022/07/10 04:41:10;;;;;;;6.18;3.20;;;;;;;;;;4997463;28;20070;-79
2022/07/10 04:43:36;;;;;;;5.78;3.25;;;;;;;;;;4997495;28;20026;-79
2022/07/10 04:46:02;;;;;;;7.20;3.28;;;;;;;;;;4997738;28;20042;-79
2022/07/10 04:48:28;;;;;;;6.28;3.45;;;;;;;;;;5004047;28;20026;-79
2022/07/10 04:50:54;;;;;;;5.57;3.10;;;;;;;;;;5016326;28;20028;-79
2022/07/10 04:53:20;;;;;;;4.68;2.53;;;;;;;;;;5016703;28;20033;-79
2022/07/10 04:55:46;;;;;;;6.88;3.17;;;;;;;;;;4997319;28;20042;-79
2022/07/10 04:58:12;;;;;;;6.13;3.92;;;;;;;;;;4996705;28;20374;-79
2022/07/10 05:00:38;;;;;;;5.40;3.17;;;;;;;;;;4995816;28;20061;-79
2022/07/10 05:03:04;;;;;;;6.68;3.00;;;;;;;;;;4996431;28;20061;-79
2022/07/10 05:05:30;;;;;;;6.57;4.20;;;;;;;;;;4996455;28;20031;-79
2022/07/10 05:07:56;;;;;;;5.65;3.03;;;;;;;;;;4996102;28;20032;-78
2022/07/10 05:10:22;;;;;;;7.22;3.17;;;;;;;;;;4996027;28;20284;-79
2022/07/10 05:12:48;;;;;;;5.70;3.35;;;;;;;;;;4999612;28;20030;-79
2022/07/10 05:15:14;;;;;;;5.53;3.30;;;;;;;;;;5016174;28;20030;-79
2022/07/10 05:17:40;;;;;;;5.35;3.28;;;;;;;;;;5015398;28;20028;-79
2022/07/10 05:20:07;;;;;;;6.75;3.38;;;;;;;;;;4996517;28;20080;-79
2022/07/10 05:22:33;;;;;;;6.00;2.92;;;;;;;;;;4996428;28;20033;-79
2022/07/10 05:24:59;;;;;;;5.25;3.13;;;;;;;;;;4996824;28;20473;-79
2022/07/10 05:27:26;;;;;;;5.90;3.38;;;;;;;;;;4995958;28;20085;-79
2022/07/10 05:29:52;;;;;;;6.18;3.30;;;;;;;;;;4996650;28;20392;-79
2022/07/10 05:32:19;;;;;;;5.43;3.22;;;;;;;;;;4996274;28;20096;-80
2022/07/10 05:34:45;;;;;;;6.90;3.70;;;;;;;;;;4977184;28;20038;-80
2022/07/10 05:37:11;;;;;;;6.45;3.33;;;;;;;;;;4977003;28;20037;-79
2022/07/10 05:39:37;;;;;;;5.25;3.35;;;;;;;;;;4990107;28;20022;-80
2022/07/10 05:42:03;;;;;;;6.22;3.03;;;;;;;;;;4977697;28;20443;-79
2022/07/10 05:44:29;;;;;;;6.07;3.30;;;;;;;;;;4993460;28;20030;-79
2022/07/10 05:46:55;;;;;;;6.88;3.47;;;;;;;;;;4996429;28;20487;-79
2022/07/10 05:49:21;;;;;;;6.10;3.22;;;;;;;;;;4996102;28;20030;-79
2022/07/10 05:51:47;;;;;;;5.25;3.15;;;;;;;;;;4995187;28;20030;-79
2022/07/10 05:54:13;;;;;;;5.78;3.70;;;;;;;;;;5010839;28;20026;-79
2022/07/10 05:56:39;;;;;;;5.95;3.58;;;;;;;;;;5016152;28;20018;-79
2022/07/10 05:59:05;;;;;;;5.30;3.63;;;;;;;;;;4994908;28;20078;-79
2022/07/10 06:01:31;;;;;;;6.15;3.05;;;;;;;;;;4993808;28;20428;-79
2022/07/10 06:03:57;;;;;;;6.55;3.67;;;;;;;;;;4995150;28;20018;-81
2022/07/10 06:06:23;;;;;;;6.25;3.70;;;;;;;;;;4996007;28;20034;-81
2022/07/10 06:08:49;;;;;;;6.05;4.03;;;;;;;;;;4995433;28;20077;-81
2022/07/10 06:11:16;;;;;;;6.18;3.30;;;;;;;;;;4995644;28;20344;-82
2022/07/10 06:13:42;;;;;;;5.72;3.40;;;;;;;;;;4996284;28;20029;-81
2022/07/10 06:16:08;;;;;;;6.07;3.33;;;;;;;;;;4995703;28;20018;-81
2022/07/10 06:18:34;;;;;;;6.22;3.58;;;;;;;;;;4996071;28;20027;-81
2022/07/10 06:21:00;;;;;;;5.50;3.42;;;;;;;;;;4995575;28;20033;-81
2022/07/10 06:23:26;;;;;;;6.65;3.40;;;;;;;;;;4996128;28;20027;-81
2022/07/10 06:25:52;;;;;;;7.90;3.83;;;;;;;;;;4995291;28;20023;-80
2022/07/10 06:28:19;;;;;;;5.93;3.35;;;;;;;;;;5002161;28;21075;-81
2022/07/10 06:30:48;;;;;;;6.47;3.80;;;;;;;;;;5001627;28;20022;-81
2022/07/10 06:33:14;;;;;;;6.50;3.55;;;;;;;;;;5002525;28;20030;-81
2022/07/10 06:35:40;;;;;;;6.38;3.60;;;;;;;;;;5009987;28;20049;-79
2022/07/10 06:38:06;;;;;;;5.75;3.55;;;;;;;;;;5016620;28;20030;-79
2022/07/10 06:40:36;;;;;;;6.10;4.10;;;;;;;;;;5006418;28;20060;-80
2022/07/10 06:43:02;;;;;;;5.70;3.90;;;;;;;;;;5001795;28;20018;-81
2022/07/10 06:45:28;;;;;;;7.05;4.10;;;;;;;;;;5002541;28;20045;-81
2022/07/10 06:47:58;;;;;;;5.38;3.50;;;;;;;;;;5001615;28;20112;-81
2022/07/10 06:50:34;;;;;;;6.43;4.15;;;;;;;;;;5001717;28;20497;-81
2022/07/10 06:53:00;;;;;;;6.85;4.53;;;;;;;;;;5001837;28;20026;-80
2022/07/10 06:55:26;;;;;;;7.20;3.80;;;;;;;;;;5001961;28;20034;-79
2022/07/10 06:57:52;;;;;;;6.30;3.88;;;;;;;;;;5002205;28;20511;-80
2022/07/10 07:00:19;;;;;;;6.35;4.05;;;;;;;;;;5000917;28;20449;-80
2022/07/10 07:02:45;;;;;;;6.43;3.67;;;;;;;;;;4996512;28;20054;-79
2022/07/10 07:05:11;;;;;;;8.35;3.88;;;;;;;;;;4993994;28;20547;-79
2022/07/10 07:07:37;;;;;;;4.88;3.00;;;;;;;;;;5001114;28;20018;-81
2022/07/10 07:10:04;;;;;;;5.68;3.28;;;;;;;;;;5001928;28;20030;-80
2022/07/10 07:12:30;;;;;;;6.32;3.78;;;;;;;;;;5002359;28;20026;-80
2022/07/10 07:14:56;;;;;;;6.20;3.65;;;;;;;;;;5001243;28;20060;-80
2022/07/10 07:17:24;;;;;;;5.63;3.78;;;;;;;;;;5001742;28;20053;-80
2022/07/10 07:25:20;;;;;;;5.93;3.85;;;;;;;;;;5001214;28;20037;-79
2022/07/10 07:27:46;;;;;;;6.57;3.80;;;;;;;;;;5002044;28;20037;-79
2022/07/10 07:30:16;;;;;;;6.93;4.20;;;;;;;;;;5001009;28;20034;-80
2022/07/10 07:32:43;;;;;;;5.97;3.75;;;;;;;;;;5000554;28;20022;-80
2022/07/10 07:35:09;;;;;;;7.57;4.20;;;;;;;;;;5010812;28;20424;-81
2022/07/10 07:37:46;;;;;;;5.97;3.60;;;;;;;;;;5020899;28;20026;-81
2022/07/10 07:40:13;;;;;;;6.78;3.80;;;;;;;;;;5014474;28;20072;-80
2022/07/10 07:42:40;;;;;;;7.25;3.78;;;;;;;;;;4998746;28;20113;-80
2022/07/10 07:45:07;;;;;;;6.05;3.63;;;;;;;;;;5007581;28;20076;-80
2022/07/10 07:47:47;;;;;;;6.53;3.40;;;;;;;;;;5017520;28;20026;-80
2022/07/10 07:50:17;;;;;;;7.30;3.45;;;;;;;;;;5005358;28;20026;-80
2022/07/10 07:52:43;;;;;;;6.72;3.45;;;;;;;;;;4998309;28;20150;-80
2022/07/10 07:55:10;;;;;;;5.40;2.60;;;;;;;;;;5006784;28;20041;-80
2022/07/10 07:57:36;;;;;;;5.47;3.08;;;;;;;;;;5008562;28;20496;-80
2022/07/10 08:00:03;;;;;;;4.72;2.80;;;;;;;;;;4997665;28;20396;-79
2022/07/10 08:02:29;;;;;;;4.60;2.50;;;;;;;;;;4997709;28;20558;-80
2022/07/10 08:04:55;;;;;;;5.15;2.20;;;;;;;;;;4998316;28;20109;-80
2022/07/10 08:07:21;;;;;;;4.32;2.20;;;;;;;;;;5006153;28;20038;-80
2022/07/10 08:09:48;;;;;;;5.82;1.80;;;;;;;;;;5017339;28;20105;-80
2022/07/10 08:12:14;;;;;;;4.00;2.20;;;;;;;;;;5017443;28;20443;-80
2022/07/10 08:14:40;;;;;;;5.03;2.10;;;;;;;;;;5009443;28;20511;-81
2022/07/10 08:17:06;;;;;;;5.93;2.58;;;;;;;;;;4995489;28;20034;-80
2022/07/10 08:19:32;;;;;;;4.15;2.33;;;;;;;;;;5007045;28;20053;-81
2022/07/10 08:21:58;;;;;;;5.07;2.60;;;;;;;;;;5017005;28;20029;-81
2022/07/10 08:24:24;;;;;;;4.50;2.38;;;;;;;;;;5016935;28;20112;-81
2022/07/10 08:26:50;;;;;;;5.72;2.50;;;;;;;;;;5017198;28;20025;-80
2022/07/10 08:29:16;;;;;;;4.88;2.35;;;;;;;;;;5016951;28;20026;-80
2022/07/10 08:31:42;;;;;;;4.00;2.30;;;;;;;;;;5006318;28;20031;-81
2022/07/10 08:34:08;;;;;;;6.50;2.17;;;;;;;;;;4996697;28;20436;-80
2022/07/10 08:36:37;;;;;;;5.00;2.20;;;;;;;;;;4998368;28;20022;-81
2022/07/10 08:39:03;;;;;;;4.05;1.95;;;;;;;;;;5003643;28;20032;-81
2022/07/10 08:41:29;;;;;;;5.32;2.10;;;;;;;;;;5016519;28;20022;-81
2022/07/10 08:43:55;;;;;;;4.93;1.80;;;;;;;;;;5004500;28;20425;-81
2022/07/10 08:46:21;;;;;;;4.95;2.22;;;;;;;;;;4995511;28;20029;-81
2022/07/10 08:48:48;;;;;;;3.78;2.08;;;;;;;;;;4996964;28;20440;-82
2022/07/10 08:51:21;;;;;;;4.63;2.15;;;;;;;;;;4995745;28;20034;-81
2022/07/10 08:53:49;;;;;;;5.72;2.60;;;;;;;;;;4994760;28;20125;-81
2022/07/10 08:56:18;;;;;;;5.25;2.22;;;;;;;;;;4995952;28;20026;-80
2022/07/10 08:58:44;;;;;;;6.70;2.17;;;;;;;;;;4995586;28;20026;-79
2022/07/10 09:01:10;;;;;;;4.97;1.95;;;;;;;;;;4996797;28;20105;-81
2022/07/10 09:03:38;;;;;;;4.30;2.28;;;;;;;;;;5002310;28;20022;-81
2022/07/10 09:06:05;;;;;;;5.10;2.25;;;;;;;;;;5016782;28;20025;-81
2022/07/10 09:08:33;;;;;;;3.65;1.77;;;;;;;;;;5016234;28;20112;-81
2022/07/10 09:11:18;;;;;;;6.80;2.20;;;;;;;;;;5015337;28;20030;-80
2022/07/10 09:13:54;;;;;;;5.88;2.40;;;;;;;;;;4995211;28;20389;-81
2022/07/10 09:16:24;;;;;;;5.90;2.17;;;;;;;;;;5007569;28;20482;-80
2022/07/10 09:18:50;;;;;;;4.10;2.13;;;;;;;;;;5015849;28;20108;-81
2022/07/10 09:21:16;;;;;;;4.65;2.17;;;;;;;;;;5015837;28;20477;-80
2022/07/10 09:23:43;;;;;;;5.18;2.15;;;;;;;;;;5015107;28;20054;-81
2022/07/10 09:26:09;;;;;;;5.20;2.17;;;;;;;;;;5000663;28;20501;-81
2022/07/10 09:28:35;;;;;;;4.97;2.35;;;;;;;;;;4994212;28;20116;-81
2022/07/10 09:31:01;;;;;;;4.57;2.10;;;;;;;;;;4994559;28;20027;-80
2022/07/10 09:33:31;;;;;;;6.10;2.88;;;;;;;;;;4995859;28;20029;-81
2022/07/10 09:36:14;;;;;;;5.32;2.42;;;;;;;;;;5006174;28;20140;-81
2022/07/10 09:38:40;;;;;;;5.22;2.60;;;;;;;;;;5014986;28;20036;-81
2022/07/10 09:41:26;;;;;;;4.13;2.05;;;;;;;;;;5010279;28;20507;-80
2022/07/10 09:44:00;;;;;;;6.30;2.40;;;;;;;;;;4994300;28;20025;-82
2022/07/10 09:46:31;;;;;;;5.10;2.20;;;;;;;;;;5017472;28;20026;-78
2022/07/10 09:49:10;;;;;;;4.63;2.55;;;;;;;;;;5012714;28;20031;-79
2022/07/10 09:51:40;;;;;;;5.40;2.33;;;;;;;;;;4995654;28;20034;-80
2022/07/10 09:54:07;;;;;;;5.57;2.63;;;;;;;;;;4996316;28;20432;-80
2022/07/10 09:56:40;;;;;;;4.30;2.30;;;;;;;;;;4991539;28;20035;-79
2022/07/10 09:59:08;;;;;;;4.88;2.20;;;;;;;;;;4995094;28;20022;-81
2022/07/10 10:01:35;;;;;;;5.55;2.47;;;;;;;;;;4994582;28;20612;-80
2022/07/10 10:04:03;;;;;;;5.00;2.30;;;;;;;;;;4995214;28;20026;-81
2022/07/10 10:06:30;;;;;;;5.40;2.25;;;;;;;;;;4994598;28;20029;-80
2022/07/10 10:09:08;;;;;;;4.60;2.28;;;;;;;;;;4995342;28;20022;-80
2022/07/10 10:11:39;;;;;;;4.97;2.47;;;;;;;;;;4995472;28;20101;-81
2022/07/10 10:14:06;;;;;;;5.97;2.65;;;;;;;;;;4995562;28;20030;-76
2022/07/10 10:16:33;;;;;;;5.05;2.55;;;;;;;;;;5000967;28;20163;-81
2022/07/10 10:21:45;;;;;;;5.45;2.22;;;;;;;;;;5017938;28;20069;-79
2022/07/10 10:24:11;;;;;;;5.57;2.30;;;;;;;;;;5021814;28;20029;-78
2022/07/10 10:26:37;;;;;;;4.00;2.00;;;;;;;;;;5017431;28;20109;-78
2022/07/10 10:29:06;;;;;;;6.18;2.35;;;;;;;;;;5015238;28;20025;-81
2022/07/10 10:31:32;;;;;;;4.45;2.08;;;;;;;;;;5011146;28;20053;-81
2022/07/10 10:34:00;;;;;;;4.65;2.30;;;;;;;;;;5008043;28;20030;-80
2022/07/10 10:36:43;;;;;;;3.90;1.88;;;;;;;;;;5014056;28;20613;-80
2022/07/10 10:39:12;;;;;;;4.18;1.98;;;;;;;;;;5013985;28;20022;-80
2022/07/10 10:41:39;;;;;;;4.45;2.00;;;;;;;;;;5014114;28;20026;-80
2022/07/10 10:46:35;;;;;;;4.80;2.47;;;;;;;;;;4994321;28;20022;-81
2022/07/10 10:49:07;;;;;;;4.50;2.08;;;;;;;;;;5012256;28;20037;-80
2022/07/10 10:51:57;;;;;;;3.80;2.10;;;;;;;;;;5013530;28;20030;-80
2022/07/10 10:54:23;;;;;;;6.13;2.40;;;;;;;;;;5014133;28;20484;-80
2022/07/10 10:57:07;;;;;;;4.50;2.00;;;;;;;;;;5003235;28;20095;-81
2022/07/10 10:59:45;;;;;;;4.53;1.85;;;;;;;;;;4999790;28;20113;-79
2022/07/10 11:02:22;;;;;;;5.10;2.10;;;;;;;;;;4994839;28;20425;-77
2022/07/10 11:04:49;;;;;;;3.90;1.83;;;;;;;;;;5000424;28;20034;-78
2022/07/10 11:07:35;;;;;;;4.07;1.88;;;;;;;;;;4993676;28;20030;-79
2022/07/10 11:10:19;;;;;;;4.03;1.90;;;;;;;;;;4994131;28;20022;-80
2022/07/10 11:12:57;;;;;;;4.45;1.90;;;;;;;;;;4994972;28;20099;-80
2022/07/10 11:15:24;;;;;;;4.18;1.88;;;;;;;;;;5017192;28;20033;-81
2022/07/10 11:17:51;;;;;;;4.93;1.80;;;;;;;;;;5016903;28;20022;-81
2022/07/10 11:20:17;;;;;;;3.95;1.48;;;;;;;;;;5003399;28;20033;-79
2022/07/10 11:22:47;;;;;;;3.78;1.60;;;;;;;;;;5009459;28;20018;-81
2022/07/10 11:25:14;;;;;;;3.97;1.88;;;;;;;;;;5013787;28;20033;-80
2022/07/10 11:27:58;;;;;;;5.40;2.15;;;;;;;;;;4996354;28;20046;-80
2022/07/10 11:30:24;;;;;;;5.28;1.98;;;;;;;;;;4977533;28;20026;-79
2022/07/10 11:32:50;;;;;;;4.15;1.83;;;;;;;;;;4977881;28;20035;-80
2022/07/10 11:35:17;;;;;;;4.03;1.70;;;;;;;;;;4978707;28;20420;-81
2022/07/10 11:37:50;;;;;;;3.70;1.52;;;;;;;;;;5016866;28;20037;-80
2022/07/10 11:40:16;;;;;;;4.43;1.60;;;;;;;;;;5017118;28;20018;-80
2022/07/10 11:42:53;;;;;;;7.85;3.67;;;;;;;;;;5015100;28;20025;-80
2022/07/10 11:45:26;;;;;;;3.55;2.00;;;;;;;;;;5016562;28;20029;-79
2022/07/10 11:47:52;;;;;;;4.30;1.63;;;;;;;;;;5017364;28;20022;-80
2022/07/10 11:50:18;;;;;;;3.90;1.58;;;;;;;;;;5007537;28;20018;-80
2022/07/10 11:52:45;;;;;;;3.97;1.52;;;;;;;;;;4996862;28;20026;-80
2022/07/10 11:55:19;;;;;;;4.05;1.70;;;;;;;;;;4997742;28;20031;-79
2022/07/10 11:57:48;;;;;;;3.78;1.27;;;;;;;;;;4991714;28;20027;-80
2022/07/10 12:00:34;;;;;;;6.20;1.48;;;;;;;;;;4995809;28;20469;-81
2022/07/10 12:03:16;;;;;;;4.30;1.70;;;;;;;;;;4997142;28;20069;-80
2022/07/10 12:05:43;;;;;;;4.10;1.52;;;;;;;;;;4998128;28;20448;-80
2022/07/10 12:08:09;;;;;;;2.90;1.40;;;;;;;;;;5013265;28;20392;-80
2022/07/10 12:10:35;;;;;;;2.72;1.33;;;;;;;;;;5015800;28;20554;-79
2022/07/10 12:13:19;;;;;;;4.03;1.42;;;;;;;;;;5015252;28;20460;-80
2022/07/10 12:15:46;;;;;;;3.25;1.60;;;;;;;;;;5013872;28;20392;-79
2022/07/10 12:18:17;;;;;;;4.50;1.50;;;;;;;;;;4978808;28;20058;-80
2022/07/10 12:20:47;;;;;;;4.15;1.58;;;;;;;;;;4991762;28;20057;-80
2022/07/10 12:23:15;;;;;;;4.78;1.40;;;;;;;;;;4977262;28;20023;-80
2022/07/10 12:25:42;;;;;;;4.05;1.25;;;;;;;;;;4999227;28;20072;-79
2022/07/10 12:28:08;;;;;;;4.90;2.17;;;;;;;;;;5000915;28;20099;-80
2022/07/10 12:30:38;;;;;;;5.50;1.50;;;;;;;;;;4995721;28;20022;-79
2022/07/10 12:33:08;;;;;;;4.80;1.65;;;;;;;;;;4979350;28;20045;-79
2022/07/10 12:35:46;;;;;;;5.68;2.35;;;;;;;;;;4995738;28;20094;-79
2022/07/10 12:38:15;;;;;;;3.90;1.58;;;;;;;;;;4996311;28;20034;-79
2022/07/10 12:40:41;;;;;;;3.22;1.50;;;;;;;;;;4996552;28;20019;-79
2022/07/10 12:43:08;;;;;;;4.07;1.40;;;;;;;;;;4995895;28;20512;-79
2022/07/10 12:45:34;;;;;;;4.03;1.55;;;;;;;;;;4996119;28;20025;-80
2022/07/10 12:48:04;;;;;;;4.80;1.60;;;;;;;;;;5010484;28;20031;-80
2022/07/10 12:50:30;;;;;;;2.95;1.50;;;;;;;;;;4994888;28;20022;-80
2022/07/10 12:53:08;;;;;;;4.22;1.60;;;;;;;;;;4995387;28;20034;-80
2022/07/10 12:55:38;;;;;;;4.65;1.65;;;;;;;;;;4995676;28;20072;-79
2022/07/10 12:58:14;;;;;;;3.40;1.23;;;;;;;;;;4993105;28;20026;-82
2022/07/10 13:00:44;;;;;;;3.50;1.30;;;;;;;;;;4996488;28;20385;-76
2022/07/10 13:03:11;;;;;;;3.80;1.42;;;;;;;;;;5007613;28;20061;-79
2022/07/10 13:05:39;;;;;;;4.72;1.50;;;;;;;;;;4998442;28;20500;-79
2022/07/10 13:08:24;;;;;;;3.67;1.85;;;;;;;;;;4993522;28;20030;-78
2022/07/10 13:10:50;;;;;;;2.75;1.48;;;;;;;;;;4991780;28;20027;-78
2022/07/10 13:13:17;;;;;;;6.00;1.83;;;;;;;;;;4994073;28;20034;-80
2022/07/10 13:15:49;;;;;;;3.53;1.38;;;;;;;;;;5000158;28;20029;-79
2022/07/10 13:18:21;;;;;;;3.20;1.52;;;;;;;;;;5006739;28;20077;-80
2022/07/10 13:20:47;;;;;;;2.88;1.40;;;;;;;;;;4990695;28;20489;-79
2022/07/10 13:23:13;;;;;;;3.75;1.33;;;;;;;;;;4993296;28;20050;-79
2022/07/10 13:25:40;;;;;;;4.70;1.48;;;;;;;;;;4998865;28;20072;-78
2022/07/10 13:28:07;;;;;;;4.18;1.40;;;;;;;;;;5000632;28;20038;-81
2022/07/10 13:30:33;;;;;;;3.42;1.30;;;;;;;;;;4993800;28;20517;-80
2022/07/10 13:32:59;;;;;;;10.35;2.42;;;;;;;;;;4994372;28;20030;-78
2022/07/10 13:35:28;;;;;;;3.95;1.30;;;;;;;;;;4994679;28;20141;-78
2022/07/10 13:38:00;;;;;;;4.07;1.58;;;;;;;;;;4992975;28;20033;-78
2022/07/10 13:40:29;;;;;;;5.25;1.63;;;;;;;;;;5009927;28;20164;-79
2022/07/10 13:42:56;;;;;;;3.20;1.40;;;;;;;;;;5004061;28;20026;-80
2022/07/10 13:45:22;;;;;;;4.85;1.58;;;;;;;;;;4994833;28;20512;-81
2022/07/10 13:47:50;;;;;;;3.78;1.80;;;;;;;;;;4994282;28;20444;-80
2022/07/10 13:50:16;;;;;;;2.38;1.10;;;;;;;;;;4994143;28;20496;-79
2022/07/10 13:52:42;;;;;;;3.95;1.40;;;;;;;;;;5014240;28;20519;-80
2022/07/10 13:55:08;;;;;;;2.67;1.40;;;;;;;;;;5002156;28;20110;-82
2022/07/10 13:57:34;;;;;;;3.03;1.40;;;;;;;;;;4993547;28;20030;-81
2022/07/10 14:00:00;;;;;;;3.20;1.33;;;;;;;;;;5004810;28;20072;-80
2022/07/10 14:02:26;;;;;;;3.53;1.50;;;;;;;;;;5006492;28;20037;-80
2022/07/10 14:04:52;;;;;;;3.92;1.40;;;;;;;;;;5003146;28;20022;-79
2022/07/10 14:07:18;;;;;;;2.97;1.38;;;;;;;;;;5004368;28;20053;-79
2022/07/10 14:09:44;;;;;;;5.20;1.90;;;;;;;;;;5014030;28;20026;-79
2022/07/10 14:12:11;;;;;;;3.67;1.35;;;;;;;;;;5004935;28;20022;-80
2022/07/10 14:14:37;;;;;;;3.72;1.40;;;;;;;;;;5013456;28;20496;-80
2022/07/10 14:17:03;;;;;;;3.08;1.30;;;;;;;;;;5008063;28;20033;-81
2022/07/10 14:19:29;;;;;;;3.00;1.27;;;;;;;;;;4994598;28;20082;-80
2022/07/10 14:21:55;;;;;;;2.97;1.17;;;;;;;;;;4993413;28;20046;-80
2022/07/10 14:24:21;;;;;;;4.07;1.55;;;;;;;;;;5011518;28;20455;-79
2022/07/10 14:26:47;;;;;;;2.97;1.33;;;;;;;;;;5012993;28;20032;-84
2022/07/10 14:29:13;;;;;;;4.47;1.92;;;;;;;;;;4982804;28;20037;-80
2022/07/10 14:31:40;;;;;;;3.13;1.30;;;;;;;;;;4991825;28;20034;-79
2022/07/10 14:34:06;;;;;;;3.65;1.40;;;;;;;;;;4985541;28;20030;-81
2022/07/10 14:36:32;;;;;;;3.38;1.40;;;;;;;;;;4974980;28;20122;-80
2022/07/10 14:38:59;;;;;;;3.85;1.45;;;;;;;;;;4976380;28;20019;-80
2022/07/10 14:41:25;;;;;;;3.67;1.27;;;;;;;;;;4974603;28;20091;-79
2022/07/10 14:43:51;;;;;;;3.92;1.60;;;;;;;;;;4981944;28;20026;-80
2022/07/10 14:46:18;;;;;;;3.65;1.60;;;;;;;;;;4994123;28;20027;-81
2022/07/10 14:48:44;;;;;;;5.07;1.50;;;;;;;;;;4996245;28;20031;-79
2022/07/10 14:51:10;;;;;;;4.25;1.63;;;;;;;;;;4997174;28;20113;-78
2022/07/10 14:53:37;;;;;;;3.85;1.60;;;;;;;;;;4996335;28;20124;-81
2022/07/10 14:56:03;;;;;;;4.25;1.45;;;;;;;;;;4990723;28;20029;-79
2022/07/10 14:58:29;;;;;;;4.25;1.65;;;;;;;;;;4991698;28;20524;-81